createdAt,value
2022-12-01T00:02:52.020Z,2.37
2022-12-01T00:05:59.291Z,2.50
2022-12-01T00:09:20.597Z,2.30
2022-12-01T00:12:23.240Z,2.65
2022-12-01T00:15:34.503Z,2.60
2022-12-01T00:18:37.268Z,2.20
2022-12-01T00:21:39.564Z,2.20
2022-12-01T00:24:42.180Z,2.03
2022-12-01T00:27:47.877Z,2.57
2022-12-01T00:30:50.508Z,3.05
2022-12-01T00:33:52.816Z,2.22
2022-12-01T00:36:56.134Z,2.15
2022-12-01T00:39:59.007Z,2.33
2022-12-01T00:43:02.110Z,2.00
2022-12-01T00:46:04.571Z,1.75
2022-12-01T00:49:07.348Z,2.35
2022-12-01T00:52:09.639Z,2.00
2022-12-01T00:55:12.184Z,2.60
2022-12-01T00:58:14.450Z,2.12
2022-12-01T01:01:17.124Z,2.25
2022-12-01T01:04:19.658Z,2.40
2022-12-01T01:07:22.874Z,2.60
2022-12-01T01:10:25.292Z,2.42
2022-12-01T01:13:27.975Z,2.08
2022-12-01T01:16:30.375Z,2.83
2022-12-01T01:19:33.039Z,2.10
2022-12-01T01:22:35.445Z,1.70
2022-12-01T01:25:37.989Z,2.60
2022-12-01T01:28:41.638Z,2.33
2022-12-01T01:31:44.292Z,2.00
2022-12-01T01:34:46.641Z,2.05
2022-12-01T01:37:50.801Z,2.15
2022-12-01T01:40:53.115Z,2.73
2022-12-01T01:44:00.583Z,2.25
2022-12-01T01:47:02.852Z,2.58
2022-12-01T01:50:09.136Z,2.12
2022-12-01T01:53:12.983Z,2.27
2022-12-01T01:56:15.617Z,2.15
2022-12-01T01:59:22.675Z,3.03
2022-12-01T02:02:25.655Z,2.10
2022-12-01T02:05:31.039Z,2.33
2022-12-01T02:08:34.664Z,1.83
2022-12-01T02:11:49.096Z,2.35
2022-12-01T02:15:01.148Z,2.15
2022-12-01T02:18:09.520Z,1.83
2022-12-01T02:21:14.335Z,2.67
2022-12-01T02:24:46.069Z,2.28
2022-12-01T02:28:10.008Z,1.97
2022-12-01T02:31:15.557Z,2.10
2022-12-01T02:34:44.772Z,2.28
2022-12-01T02:38:11.703Z,2.33
2022-12-01T02:41:22.051Z,2.30
2022-12-01T02:44:32.436Z,2.65
2022-12-01T02:47:34.745Z,2.08
2022-12-01T02:50:37.283Z,2.60
2022-12-01T02:53:39.588Z,2.00
2022-12-01T02:56:44.231Z,2.20
2022-12-01T02:59:48.673Z,2.67
2022-12-01T03:03:22.788Z,2.65
2022-12-01T03:06:37.596Z,3.90
2022-12-01T03:10:16.312Z,3.45
2022-12-01T03:13:33.567Z,4.20
2022-12-01T03:16:52.177Z,4.43
2022-12-01T03:19:57.880Z,4.28
2022-12-01T03:23:04.789Z,4.43
2022-12-01T03:26:08.304Z,5.90
2022-12-01T03:29:18.312Z,6.37
2022-12-01T03:32:25.509Z,6.35
2022-12-01T03:35:31.279Z,6.95
2022-12-01T03:38:36.090Z,7.03
2022-12-01T03:41:42.488Z,7.33
2022-12-01T03:44:49.728Z,6.00
2022-12-01T03:47:52.579Z,6.30
2022-12-01T03:51:15.075Z,7.05
2022-12-01T03:54:54.183Z,5.95
2022-12-01T03:57:57.056Z,5.78
2022-12-01T04:01:01.856Z,5.65
2022-12-01T04:04:09.131Z,5.50
2022-12-01T04:07:13.513Z,6.03
2022-12-01T04:10:16.172Z,5.82
2022-12-01T04:13:25.536Z,5.47
2022-12-01T04:16:30.536Z,5.80
2022-12-01T04:19:32.948Z,5.72
2022-12-01T04:22:35.580Z,5.28
2022-12-01T04:25:37.895Z,4.95
2022-12-01T04:28:40.453Z,5.33
2022-12-01T04:31:42.975Z,5.00
2022-12-01T04:34:45.702Z,5.65
2022-12-01T04:37:48.126Z,5.53
2022-12-01T04:40:50.711Z,5.40
2022-12-01T04:43:54.629Z,5.18
2022-12-01T04:46:57.219Z,5.07
2022-12-01T04:50:00.450Z,5.82
2022-12-01T04:53:03.815Z,5.47
2022-12-01T04:56:06.423Z,4.35
2022-12-01T04:59:09.039Z,5.65
2022-12-01T05:02:11.396Z,5.90
2022-12-01T05:05:14.204Z,4.35
2022-12-01T05:08:16.519Z,4.85
2022-12-01T05:11:19.124Z,4.62
2022-12-01T05:14:21.514Z,5.20
2022-12-01T05:17:24.047Z,4.80
2022-12-01T05:20:45.040Z,5.10
2022-12-01T05:23:47.683Z,4.93
2022-12-01T05:26:50.055Z,4.60
2022-12-01T05:29:52.729Z,4.28
2022-12-01T05:32:55.103Z,4.62
2022-12-01T05:35:57.711Z,4.70
2022-12-01T05:39:00.465Z,5.13
2022-12-01T05:42:03.075Z,4.60
2022-12-01T05:45:06.122Z,4.15
2022-12-01T05:48:08.775Z,5.25
2022-12-01T05:51:11.934Z,4.63
2022-12-01T05:54:16.264Z,4.18
2022-12-01T05:57:18.548Z,3.97
2022-12-01T06:00:21.248Z,4.60
2022-12-01T06:03:23.789Z,5.13
2022-12-01T06:06:26.252Z,4.32
2022-12-01T06:09:28.836Z,4.30
2022-12-01T06:12:31.154Z,4.45
2022-12-01T06:15:33.697Z,5.05
2022-12-01T06:18:37.129Z,4.07
2022-12-01T06:21:39.751Z,4.18
2022-12-01T06:24:42.066Z,4.00
2022-12-01T06:27:44.587Z,3.37
2022-12-01T06:30:46.973Z,4.28
2022-12-01T06:33:49.482Z,4.22
2022-12-01T06:36:51.808Z,3.90
2022-12-01T06:39:54.316Z,4.57
2022-12-01T06:42:59.676Z,4.00
2022-12-01T06:46:05.979Z,3.12
2022-12-01T06:49:12.065Z,3.93
2022-12-01T06:52:14.668Z,4.32
2022-12-01T06:55:16.984Z,4.00
2022-12-01T06:58:19.572Z,3.85
2022-12-01T07:01:22.032Z,4.40
2022-12-01T07:04:25.072Z,3.83
2022-12-01T07:07:27.513Z,4.00
2022-12-01T07:10:30.100Z,4.40
2022-12-01T07:13:33.913Z,5.70
2022-12-01T07:16:36.832Z,5.12
2022-12-01T07:19:39.627Z,6.00
2022-12-01T07:22:43.037Z,5.90
2022-12-01T07:25:45.544Z,6.83
2022-12-01T07:28:49.972Z,5.72
2022-12-01T07:31:52.331Z,7.12
2022-12-01T07:34:54.961Z,6.72
2022-12-01T07:37:57.356Z,7.53
